KMUO/MUO METAR and TAF weather

Enter ICAO airport designator
Station Type Date Time Source
KMUO METAR 2022/01/26 12:58 UTC NOAA

KMUO 261258Z AUTO 10007KT 10SM OVC010 M05/M05 A3033 RMK AO2 SLP302 T10491050 RVRNO $


Station Type Date Time Source
KMUO Decoded METAR 2022/01/26 12:58 UTC NOAA

Mountain Home Air Force Base, ID, United States (KMUO) 43-03N 115-52W
Jan 26, 2022 - 07:58 AM EST / 2022.01.26 1258 UTC
Wind: from the E (100 degrees) at 8 MPH (7 KT):0
Visibility: 10 mile(s):0
Sky conditions: overcast
Temperature: 23.2 F (-4.9 C)
Windchill: 14 F (-10 C):1
Dew Point: 23.0 F (-5.0 C)
Relative Humidity: 99%
Pressure (altimeter): 30.33 in. Hg (1027 hPa)
ob: KMUO 261258Z AUTO 10007KT 10SM OVC010 M05/M05 A3033 RMK AO2 SLP302 T10491050 RVRNO
cycle: 13

Station Type Date Time Source
KMUO TAF 2022/01/26 10:03 UTC NOAA

TAF KMUO 261000Z 2610/2716 VRB06KT 9999 BKN012 620129 QNH3034INS
TEMPO 2612/2618 6000 BR BKN005 620059
BECMG 2617/2618 12010G15KT 9999 SCT008 BKN015 620159 QNH3034INS
BECMG 2622/2623 VRB06KT 9999 SCT010 BKN020 620209 QNH3031INS
BECMG 2705/2706 31010G15KT 9000 BR BKN010 620109 QNH3040INS TXM01/2621Z TNM05/2614Z

Example: see airport list